Time;durP1;ratioP1;P1;durP2;ratioP2;P2;SDS_P1;SDS_P2;PMS_P1;PMS_P2;Temp;Humidity;BMP_temperature;BMP_pressure;BME280_temperature;BME280_humidity;BME280_pressure;Samples;Min_cycle;Max_cycle;Signal;HPM_P1;HPM_P2
2022/11/01 00:01:03;;;;;;;;;;;13.30;99.90;;;;;;4948944;29;20005;-82
2022/11/01 00:03:28;;;;;;;;;;;13.30;99.90;;;;;;4942222;29;19917;-82
2022/11/01 00:05:54;;;;;;;;;;;13.30;99.90;;;;;;4949166;29;19910;-82
2022/11/01 00:08:19;;;;;;;;;;;13.20;99.90;;;;;;4949983;29;19922;-82
2022/11/01 00:10:45;;;;;;;;;;;13.20;99.90;;;;;;4945814;29;19953;-82
2022/11/01 00:13:10;;;;;;;;;;;13.20;99.90;;;;;;4947110;28;19917;-83
2022/11/01 00:15:36;;;;;;;;;;;13.30;99.90;;;;;;4945880;29;19922;-82
2022/11/01 00:18:08;;;;;;;;;;;13.30;99.90;;;;;;4946435;28;19918;-83
2022/11/01 00:20:34;;;;;;;;;;;13.30;99.90;;;;;;4950783;29;19918;-83
2022/11/01 00:22:59;;;;;;;;;;;13.30;99.90;;;;;;4952451;29;19910;-83
2022/11/01 00:25:24;;;;;;;;;;;13.30;99.90;;;;;;4951284;29;19925;-82
2022/11/01 00:27:50;;;;;;;;;;;13.40;99.90;;;;;;4946635;29;19911;-82
2022/11/01 00:30:15;;;;;;;;;;;13.40;99.90;;;;;;4951620;28;20373;-82
2022/11/01 00:32:41;;;;;;;;;;;13.40;99.90;;;;;;4949890;28;19910;-83
2022/11/01 00:35:13;;;;;;;;;;;13.30;99.90;;;;;;4950976;28;19954;-82
2022/11/01 00:37:38;;;;;;;;;;;13.40;99.90;;;;;;4950799;28;20005;-81
2022/11/01 00:40:04;;;;;;;;;;;13.40;99.90;;;;;;4949915;29;20056;-82
2022/11/01 00:42:29;;;;;;;;;;;13.40;99.90;;;;;;4946720;29;19913;-82
2022/11/01 00:44:55;;;;;;;;;;;13.40;99.90;;;;;;4950295;29;19933;-82
2022/11/01 00:47:20;;;;;;;;;;;13.30;99.90;;;;;;4950400;29;19920;-83
2022/11/01 00:49:45;;;;;;;;;;;13.20;99.90;;;;;;4947850;29;19910;-82
2022/11/01 00:52:11;;;;;;;;;;;13.20;99.90;;;;;;4948317;28;19914;-84
2022/11/01 00:54:36;;;;;;;;;;;13.20;99.90;;;;;;4948767;29;19973;-83
2022/11/01 00:57:02;;;;;;;;;;;13.10;99.90;;;;;;4952081;28;19921;-83
2022/11/01 00:59:27;;;;;;;;;;;13.00;99.90;;;;;;4950751;29;19918;-83
2022/11/01 01:01:53;;;;;;;;;;;12.80;99.90;;;;;;4946991;28;19911;-83
2022/11/01 01:04:18;;;;;;;;;;;12.70;99.90;;;;;;4951040;29;19918;-83
2022/11/01 01:06:43;;;;;;;;;;;12.60;99.90;;;;;;4951044;28;19919;-83
2022/11/01 01:09:09;;;;;;;;;;;12.40;99.90;;;;;;4950122;28;19906;-83
2022/11/01 01:11:35;;;;;;;;;;;12.40;99.90;;;;;;4947884;28;19910;-83
2022/11/01 01:14:00;;;;;;;;;;;12.40;99.90;;;;;;4944363;29;19910;-83
2022/11/01 01:16:26;;;;;;;;;;;12.30;99.90;;;;;;4950657;29;20353;-84
2022/11/01 01:18:51;;;;;;;;;;;12.30;99.90;;;;;;4951430;28;20239;-84
2022/11/01 01:21:17;;;;;;;;;;;12.30;99.90;;;;;;4943776;28;19914;-84
2022/11/01 01:23:42;;;;;;;;;;;12.20;99.90;;;;;;4951060;28;19960;-83
2022/11/01 01:26:08;;;;;;;;;;;12.20;99.90;;;;;;4949888;28;20584;-83
2022/11/01 01:28:34;;;;;;;;;;;12.20;99.90;;;;;;4946795;28;20042;-83
2022/11/01 01:31:04;;;;;;;;;;;12.20;99.90;;;;;;4946653;28;20005;-83
2022/11/01 01:33:30;;;;;;;;;;;12.20;99.90;;;;;;4948954;29;19978;-84
2022/11/01 01:35:58;;;;;;;;;;;12.20;99.90;;;;;;4948537;29;19914;-84
2022/11/01 01:38:23;;;;;;;;;;;12.20;99.90;;;;;;4949773;28;20392;-83
2022/11/01 01:40:49;;;;;;;;;;;12.20;99.90;;;;;;4949093;29;19906;-83
2022/11/01 01:43:14;;;;;;;;;;;12.20;99.90;;;;;;4944240;29;19911;-83
2022/11/01 01:45:40;;;;;;;;;;;12.20;99.90;;;;;;4949566;29;19954;-83
2022/11/01 01:48:10;;;;;;;;;;;12.50;99.90;;;;;;4948625;28;19983;-83
2022/11/01 01:50:38;;;;;;;;;;;12.50;99.90;;;;;;4950915;28;19914;-83
2022/11/01 01:53:05;;;;;;;;;;;12.40;99.90;;;;;;4950930;28;19934;-83
2022/11/01 01:55:40;;;;;;;;;;;12.40;99.90;;;;;;4947056;28;19907;-83
2022/11/01 01:58:07;;;;;;;;;;;12.20;99.90;;;;;;4944403;28;19951;-83
2022/11/01 02:00:32;;;;;;;;;;;12.10;99.90;;;;;;4950669;28;20429;-83
2022/11/01 02:02:58;;;;;;;;;;;11.90;99.90;;;;;;4950024;29;20009;-83
2022/11/01 02:05:45;;;;;;;;;;;11.80;99.90;;;;;;4950841;29;19918;-82
2022/11/01 02:08:11;;;;;;;;;;;11.90;99.90;;;;;;4948714;28;19906;-83
2022/11/01 02:10:37;;;;;;;;;;;11.70;99.90;;;;;;4950486;28;19911;-83
2022/11/01 02:13:09;;;;;;;;;;;11.70;99.90;;;;;;4951291;29;19914;-82
2022/11/01 02:15:39;;;;;;;;;;;11.50;99.90;;;;;;4947373;28;19913;-83
2022/11/01 02:18:12;;;;;;;;;;;11.50;99.90;;;;;;4947822;28;19918;-82
2022/11/01 02:20:41;;;;;;;;;;;11.40;99.90;;;;;;4946206;28;19958;-83
2022/11/01 02:23:17;;;;;;;;;;;11.50;99.90;;;;;;4948754;28;20266;-83
2022/11/01 02:26:10;;;;;;;;;;;11.30;99.90;;;;;;4948215;28;20182;-84
2022/11/01 02:29:06;;;;;;;;;;;11.40;99.90;;;;;;4950228;29;19918;-83
2022/11/01 02:31:31;;;;;;;;;;;11.40;99.90;;;;;;4944999;29;19918;-83
2022/11/01 02:33:59;;;;;;;;;;;11.60;99.90;;;;;;4949904;28;19989;-83
2022/11/01 02:36:34;;;;;;;;;;;11.60;99.90;;;;;;4945707;28;19918;-83
2022/11/01 02:39:05;;;;;;;;;;;11.60;99.90;;;;;;4948571;28;19954;-83
2022/11/01 02:41:33;;;;;;;;;;;11.60;99.90;;;;;;4948428;28;19958;-83
2022/11/01 02:44:01;;;;;;;;;;;11.50;99.90;;;;;;4950697;28;19914;-83
2022/11/01 02:49:14;;;;;;;;;;;11.50;99.90;;;;;;4948420;29;19926;-82
2022/11/01 02:51:40;;;;;;;;;;;11.50;99.90;;;;;;4949309;28;20021;-83
2022/11/01 02:54:07;;;;;;;;;;;11.50;99.90;;;;;;4949136;28;20429;-83
2022/11/01 02:56:33;;;;;;;;;;;11.60;99.90;;;;;;4950246;29;19957;-83
2022/11/01 02:58:59;;;;;;;;;;;11.70;99.90;;;;;;4947966;28;19914;-83
2022/11/01 03:01:26;;;;;;;;;;;11.90;99.90;;;;;;4946111;29;19911;-83
2022/11/01 03:03:54;;;;;;;;;;;12.00;99.90;;;;;;4949833;28;20381;-83
2022/11/01 03:06:26;;;;;;;;;;;12.10;99.90;;;;;;4942366;28;19917;-84
2022/11/01 03:08:56;;;;;;;;;;;12.20;99.90;;;;;;4949652;28;19911;-85
2022/11/01 03:11:23;;;;;;;;;;;12.20;99.90;;;;;;4949960;28;19965;-82
2022/11/01 03:13:55;;;;;;;;;;;12.30;99.90;;;;;;4950103;28;19941;-82
2022/11/01 03:16:26;;;;;;;;;;;12.30;99.90;;;;;;4946390;28;20477;-83
2022/11/01 03:19:02;;;;;;;;;;;12.30;99.90;;;;;;4945576;28;20012;-83
2022/11/01 03:21:29;;;;;;;;;;;12.30;99.90;;;;;;4946948;29;19910;-84
2022/11/01 03:23:59;;;;;;;;;;;12.40;99.90;;;;;;4946904;29;20381;-83
2022/11/01 03:26:26;;;;;;;;;;;12.40;99.90;;;;;;4947450;28;19921;-82
2022/11/01 03:28:54;;;;;;;;;;;12.40;99.90;;;;;;4949525;28;19917;-81
2022/11/01 03:31:24;;;;;;;;;;;12.30;99.90;;;;;;4947787;28;19918;-82
2022/11/01 03:33:51;;;;;;;;;;;12.20;99.90;;;;;;4947366;28;19915;-82
2022/11/01 03:36:19;;;;;;;;;;;12.10;99.90;;;;;;4948079;29;20385;-82
2022/11/01 03:38:53;;;;;;;;;;;12.00;99.90;;;;;;4948959;28;20365;-82
2022/11/01 03:41:20;;;;;;;;;;;11.90;99.90;;;;;;4948127;28;19910;-82
2022/11/01 03:43:46;;;;;;;;;;;11.70;99.90;;;;;;4942543;28;19921;-83
2022/11/01 03:46:12;;;;;;;;;;;11.60;99.90;;;;;;4947973;28;20538;-82
2022/11/01 03:48:39;;;;;;;;;;;11.50;99.90;;;;;;4947538;29;20008;-82
2022/11/01 03:51:04;;;;;;;;;;;11.50;99.90;;;;;;4935580;28;19926;-82
2022/11/01 03:53:29;;;;;;;;;;;11.50;99.90;;;;;;4949875;28;20266;-82
2022/11/01 03:55:55;;;;;;;;;;;11.40;99.90;;;;;;4951978;28;19914;-82
2022/11/01 03:58:20;;;;;;;;;;;11.30;99.90;;;;;;4949943;28;19917;-82
2022/11/01 04:00:46;;;;;;;;;;;11.20;99.90;;;;;;4951596;28;19925;-83
2022/11/01 04:03:12;;;;;;;;;;;11.10;99.90;;;;;;4951691;29;19914;-82
2022/11/01 04:05:39;;;;;;;;;;;11.10;99.90;;;;;;4951349;28;19910;-83
2022/11/01 04:08:05;;;;;;;;;;;11.10;99.90;;;;;;4950086;28;19918;-82
2022/11/01 04:10:30;;;;;;;;;;;11.20;99.90;;;;;;4951760;28;19911;-82
2022/11/01 04:12:56;;;;;;;;;;;11.20;99.90;;;;;;4950842;28;20290;-81
2022/11/01 04:21:01;;;;;;;;;;;11.00;99.90;;;;;;4952263;29;19921;-82
2022/11/01 04:23:26;;;;;;;;;;;10.90;99.90;;;;;;4950916;28;19910;-82
2022/11/01 04:25:52;;;;;;;;;;;10.90;99.90;;;;;;4948794;28;19921;-82
2022/11/01 04:28:17;;;;;;;;;;;10.90;99.90;;;;;;4951317;29;20277;-82
2022/11/01 04:30:42;;;;;;;;;;;10.80;99.90;;;;;;4951610;29;19970;-82
2022/11/01 04:33:08;;;;;;;;;;;10.90;99.90;;;;;;4952068;28;20009;-82
2022/11/01 04:35:37;;;;;;;;;;;10.90;99.90;;;;;;4951183;28;19917;-82
2022/11/01 04:38:02;;;;;;;;;;;10.80;99.90;;;;;;4950512;28;19917;-83
2022/11/01 04:40:28;;;;;;;;;;;10.80;99.90;;;;;;4949598;28;19918;-82
2022/11/01 04:42:53;;;;;;;;;;;10.70;99.90;;;;;;4948191;28;20080;-82
2022/11/01 04:45:19;;;;;;;;;;;10.70;99.90;;;;;;4950515;29;19952;-82
2022/11/01 04:47:51;;;;;;;;;;;10.60;99.90;;;;;;4950451;28;19915;-82
2022/11/01 04:50:26;;;;;;;;;;;10.50;99.90;;;;;;4950739;28;19918;-82
2022/11/01 04:52:51;;;;;;;;;;;10.40;99.90;;;;;;4952024;28;19910;-82
2022/11/01 04:55:16;;;;;;;;;;;10.50;99.90;;;;;;4951426;28;19910;-82
2022/11/01 04:57:42;;;;;;;;;;;10.50;99.90;;;;;;4951121;29;20638;-82
2022/11/01 05:00:12;;;;;;;;;;;10.40;99.90;;;;;;4950035;28;19914;-82
2022/11/01 05:02:38;;;;;;;;;;;10.40;99.90;;;;;;4950935;28;19914;-82
2022/11/01 05:05:05;;;;;;;;;;;10.30;99.90;;;;;;4950132;28;20009;-82
2022/11/01 05:07:30;;;;;;;;;;;10.30;99.90;;;;;;4949951;28;20344;-82
2022/11/01 05:09:56;;;;;;;;;;;10.30;99.90;;;;;;4949180;28;19997;-83
2022/11/01 05:12:21;;;;;;;;;;;10.40;99.90;;;;;;4947046;29;20013;-82
2022/11/01 05:14:47;;;;;;;;;;;10.30;99.90;;;;;;4949436;29;19910;-82
2022/11/01 05:17:12;;;;;;;;;;;10.30;99.90;;;;;;4950033;29;20369;-82
2022/11/01 05:19:37;;;;;;;;;;;10.30;99.90;;;;;;4950397;28;19914;-82
2022/11/01 05:22:03;;;;;;;;;;;10.40;99.90;;;;;;4950053;28;20168;-82
2022/11/01 05:24:28;;;;;;;;;;;10.40;99.90;;;;;;4951115;28;19959;-82
2022/11/01 05:26:58;;;;;;;;;;;10.40;99.90;;;;;;4949214;28;20223;-83
2022/11/01 05:29:23;;;;;;;;;;;10.40;99.90;;;;;;4949735;28;19917;-83
2022/11/01 05:31:49;;;;;;;;;;;10.40;99.90;;;;;;4949820;28;20309;-84
2022/11/01 05:34:14;;;;;;;;;;;10.40;99.90;;;;;;4947328;29;20409;-84
2022/11/01 05:36:40;;;;;;;;;;;10.50;99.90;;;;;;4950603;28;20294;-83
2022/11/01 05:39:05;;;;;;;;;;;10.60;99.90;;;;;;4948333;28;20422;-83
2022/11/01 05:41:30;;;;;;;;;;;10.60;99.90;;;;;;4949095;28;19910;-83
2022/11/01 05:43:56;;;;;;;;;;;10.70;99.90;;;;;;4947310;28;19917;-83
2022/11/01 05:46:21;;;;;;;;;;;10.70;99.90;;;;;;4948512;28;19910;-83
2022/11/01 05:48:47;;;;;;;;;;;10.80;99.90;;;;;;4950120;28;19925;-83
2022/11/01 05:51:12;;;;;;;;;;;10.80;99.90;;;;;;4948142;29;19914;-83
2022/11/01 05:53:37;;;;;;;;;;;10.90;99.90;;;;;;4946331;29;19910;-82
2022/11/01 05:56:03;;;;;;;;;;;10.90;99.90;;;;;;4949180;28;20394;-83
2022/11/01 05:58:28;;;;;;;;;;;10.90;99.90;;;;;;4948907;28;19914;-81
2022/11/01 06:00:57;;;;;;;;;;;11.20;99.90;;;;;;4951183;29;20115;-81
2022/11/01 06:03:23;;;;;;;;;;;11.20;99.90;;;;;;4946421;28;19910;-81
2022/11/01 06:05:48;;;;;;;;;;;11.40;99.90;;;;;;4947936;28;20560;-82
2022/11/01 06:08:14;;;;;;;;;;;11.40;99.90;;;;;;4944045;28;19910;-82
2022/11/01 06:10:39;;;;;;;;;;;11.40;99.90;;;;;;4949175;28;19917;-81
2022/11/01 06:13:04;;;;;;;;;;;11.50;99.90;;;;;;4949820;29;20390;-81
2022/11/01 06:15:30;;;;;;;;;;;11.50;99.90;;;;;;4951308;28;20281;-81
2022/11/01 06:17:57;;;;;;;;;;;11.60;99.90;;;;;;4948659;28;19926;-81
2022/11/01 06:20:22;;;;;;;;;;;11.60;99.90;;;;;;4950515;29;19915;-81
2022/11/01 06:22:48;;;;;;;;;;;11.60;99.90;;;;;;4951448;28;19969;-82
2022/11/01 06:25:13;;;;;;;;;;;11.60;99.90;;;;;;4949371;29;19960;-81
2022/11/01 06:27:38;;;;;;;;;;;11.60;99.90;;;;;;4950901;29;19957;-81
2022/11/01 06:30:04;;;;;;;;;;;11.70;99.90;;;;;;4950140;29;19914;-82
2022/11/01 06:32:30;;;;;;;;;;;11.70;99.90;;;;;;4951189;28;19969;-82
2022/11/01 06:34:55;;;;;;;;;;;11.70;99.90;;;;;;4950803;29;19907;-82
2022/11/01 06:37:20;;;;;;;;;;;11.70;99.90;;;;;;4942772;28;19918;-82
2022/11/01 06:39:46;;;;;;;;;;;11.80;99.90;;;;;;4951177;29;19910;-81
2022/11/01 06:42:11;;;;;;;;;;;11.80;99.90;;;;;;4951100;29;19910;-81
2022/11/01 06:44:36;;;;;;;;;;;11.90;99.90;;;;;;4950626;29;20000;-81
2022/11/01 06:47:02;;;;;;;;;;;11.90;99.90;;;;;;4948255;29;19977;-81
2022/11/01 06:49:29;;;;;;;;;;;11.90;99.90;;;;;;4946563;28;19926;-81
2022/11/01 06:51:54;;;;;;;;;;;11.90;99.90;;;;;;4947437;28;19918;-81
2022/11/01 06:54:20;;;;;;;;;;;12.00;99.90;;;;;;4950152;29;19911;-81
2022/11/01 06:56:46;;;;;;;;;;;12.20;99.90;;;;;;4948653;28;19910;-80
2022/11/01 06:59:11;;;;;;;;;;;12.20;99.90;;;;;;4949294;28;19925;-81
2022/11/01 07:01:37;;;;;;;;;;;12.30;99.90;;;;;;4948325;29;19914;-81
2022/11/01 07:04:02;;;;;;;;;;;12.30;99.90;;;;;;4950039;29;20013;-81
2022/11/01 07:06:29;;;;;;;;;;;12.40;99.90;;;;;;4948536;29;19910;-82
2022/11/01 07:08:55;;;;;;;;;;;12.50;99.90;;;;;;4945480;28;19914;-83
2022/11/01 07:11:21;;;;;;;;;;;12.60;99.90;;;;;;4944880;28;19937;-84
2022/11/01 07:13:47;;;;;;;;;;;12.70;99.90;;;;;;4942326;28;19938;-84
2022/11/01 07:16:12;;;;;;;;;;;12.80;99.90;;;;;;4941919;28;20427;-82
2022/11/01 07:18:37;;;;;;;;;;;12.90;99.90;;;;;;4942823;29;19926;-80
2022/11/01 07:21:03;;;;;;;;;;;13.00;99.90;;;;;;4944516;28;19914;-80
2022/11/01 07:23:29;;;;;;;;;;;13.00;99.90;;;;;;4944649;29;20369;-82
2022/11/01 07:25:55;;;;;;;;;;;13.00;99.90;;;;;;4942278;28;19938;-83
2022/11/01 07:28:21;;;;;;;;;;;13.00;99.90;;;;;;4948385;28;19938;-84
2022/11/01 07:30:47;;;;;;;;;;;13.10;99.90;;;;;;4968140;23;19977;-82
2022/11/01 07:33:12;;;;;;;;;;;13.20;99.90;;;;;;4957670;28;19918;-82
2022/11/01 07:35:38;;;;;;;;;;;13.20;99.90;;;;;;4958101;28;20337;-84
2022/11/01 07:38:03;;;;;;;;;;;13.30;99.90;;;;;;4959157;28;19969;-83
2022/11/01 07:40:29;;;;;;;;;;;13.30;99.90;;;;;;4957317;28;19993;-83
2022/11/01 07:42:55;;;;;;;;;;;13.40;99.90;;;;;;4954402;28;19968;-84
2022/11/01 07:45:21;;;;;;;;;;;13.50;99.90;;;;;;4952454;28;19965;-83
2022/11/01 07:47:47;;;;;;;;;;;13.50;99.90;;;;;;4958529;28;19922;-81
2022/11/01 07:50:13;;;;;;;;;;;13.60;99.90;;;;;;4948185;28;19910;-81
2022/11/01 07:52:38;;;;;;;;;;;13.60;99.90;;;;;;4956167;28;19915;-82
2022/11/01 07:55:04;;;;;;;;;;;13.50;99.90;;;;;;4953472;28;19910;-82
2022/11/01 07:57:29;;;;;;;;;;;13.60;99.90;;;;;;4955590;28;20552;-78
2022/11/01 07:59:55;;;;;;;;;;;13.60;99.90;;;;;;4952739;28;20005;-80
2022/11/01 08:02:20;;;;;;;;;;;13.60;99.90;;;;;;4956524;28;19980;-83
2022/11/01 08:04:45;;;;;;;;;;;13.70;99.90;;;;;;4952344;28;20288;-79
2022/11/01 08:07:11;;;;;;;;;;;13.80;99.90;;;;;;4954382;28;19919;-79
2022/11/01 08:09:36;;;;;;;;;;;13.60;99.90;;;;;;4952531;28;19915;-79
2022/11/01 08:12:02;;;;;;;;;;;13.70;99.90;;;;;;4953773;28;19921;-79
2022/11/01 08:14:27;;;;;;;;;;;13.70;99.90;;;;;;4952212;28;19918;-80
2022/11/01 08:16:54;;;;;;;;;;;13.70;99.90;;;;;;4953279;28;20001;-80
2022/11/01 08:19:20;;;;;;;;;;;13.70;99.90;;;;;;4952560;29;19953;-79
2022/11/01 08:21:46;;;;;;;;;;;13.80;99.90;;;;;;4951008;28;19918;-77
2022/11/01 08:24:11;;;;;;;;;;;13.90;99.90;;;;;;4949257;28;20373;-81
2022/11/01 08:26:37;;;;;;;;;;;14.00;99.90;;;;;;4952720;28;20290;-80
2022/11/01 08:29:02;;;;;;;;;;;14.00;99.90;;;;;;4952584;28;19914;-80
2022/11/01 08:31:27;;;;;;;;;;;14.10;99.90;;;;;;4953071;28;20313;-81
2022/11/01 08:33:53;;;;;;;;;;;14.20;99.90;;;;;;4962038;28;20002;-81
2022/11/01 08:36:20;;;;;;;;;;;14.30;99.90;;;;;;4949519;28;20388;-80
2022/11/01 08:38:46;;;;;;;;;;;14.40;99.90;;;;;;4957322;28;19910;-81
2022/11/01 08:41:11;;;;;;;;;;;14.50;99.90;;;;;;4944975;28;19925;-79
2022/11/01 08:43:37;;;;;;;;;;;14.60;99.90;;;;;;4948738;28;20357;-81
2022/11/01 08:46:02;;;;;;;;;;;14.70;99.90;;;;;;4957634;28;19914;-78
2022/11/01 08:48:27;;;;;;;;;;;14.70;99.90;;;;;;4949233;29;20349;-78
2022/11/01 08:50:53;;;;;;;;;;;14.60;99.90;;;;;;4948738;28;19914;-78
2022/11/01 08:53:18;;;;;;;;;;;14.60;99.90;;;;;;4942627;29;20369;-80
2022/11/01 08:55:44;;;;;;;;;;;14.60;99.90;;;;;;4942158;28;19997;-79
2022/11/01 08:58:10;;;;;;;;;;;14.70;99.90;;;;;;4953170;29;19910;-79
2022/11/01 09:00:35;;;;;;;;;;;14.90;99.90;;;;;;4951890;29;19917;-79
2022/11/01 09:03:01;;;;;;;;;;;15.00;99.90;;;;;;4954121;28;19921;-77
2022/11/01 09:05:29;;;;;;;;;;;15.30;99.90;;;;;;4948886;28;19918;-79
2022/11/01 09:07:56;;;;;;;;;;;15.40;99.90;;;;;;4947204;29;19913;-79
2022/11/01 09:10:22;;;;;;;;;;;15.50;99.90;;;;;;4947847;28;20010;-79
2022/11/01 09:12:47;;;;;;;;;;;15.60;99.90;;;;;;4947364;28;20005;-79
2022/11/01 09:15:13;;;;;;;;;;;15.60;99.90;;;;;;4948518;28;19914;-79
2022/11/01 09:17:38;;;;;;;;;;;15.80;99.90;;;;;;4948703;28;19917;-78
2022/11/01 09:20:04;;;;;;;;;;;15.70;99.90;;;;;;4943095;28;20022;-79
2022/11/01 09:22:29;;;;;;;;;;;15.70;99.90;;;;;;4933375;29;19993;-79
2022/11/01 09:24:57;;;;;;;;;;;15.70;99.90;;;;;;4933375;29;19907;-76
2022/11/01 09:27:23;;;;;;;;;;;15.80;99.90;;;;;;4933171;29;19907;-80
2022/11/01 09:29:48;;;;;;;;;;;16.00;99.90;;;;;;4946635;28;19921;-79
2022/11/01 09:32:14;;;;;;;;;;;15.90;99.90;;;;;;4952554;29;20111;-79
2022/11/01 09:34:39;;;;;;;;;;;16.10;99.90;;;;;;4950621;29;20104;-80
2022/11/01 09:37:05;;;;;;;;;;;16.10;99.90;;;;;;4951660;29;19914;-79
2022/11/01 09:39:30;;;;;;;;;;;16.30;99.90;;;;;;4952166;28;19961;-79
2022/11/01 09:42:01;;;;;;;;;;;16.30;99.90;;;;;;4952366;29;19906;-80
2022/11/01 09:44:38;;;;;;;;;;;16.20;99.90;;;;;;4952191;29;19917;-80
2022/11/01 09:47:05;;;;;;;;;;;16.20;99.90;;;;;;4959112;28;19910;-78
2022/11/01 09:49:32;;;;;;;;;;;16.30;99.90;;;;;;4948457;28;19910;-79
2022/11/01 09:51:57;;;;;;;;;;;16.40;99.90;;;;;;4944001;28;19942;-79
2022/11/01 09:54:23;;;;;;;;;;;16.50;99.90;;;;;;4947963;29;19954;-78
2022/11/01 09:56:57;;;;;;;;;;;16.50;99.90;;;;;;4933068;29;19910;-79
2022/11/01 09:59:22;;;;;;;;;;;16.50;99.90;;;;;;4937072;28;20377;-79
2022/11/01 10:01:56;;;;;;;;;;;16.40;99.90;;;;;;4951795;28;19917;-80
2022/11/01 10:04:39;;;;;;;;;;;16.40;99.90;;;;;;4950242;28;19914;-80
2022/11/01 10:07:08;;;;;;;;;;;16.40;99.90;;;;;;4950101;28;20389;-79
2022/11/01 10:09:52;;;;;;;;;;;16.30;99.90;;;;;;4940520;29;19914;-79
2022/11/01 10:12:34;;;;;;;;;;;16.30;99.90;;;;;;4937305;28;19914;-79
2022/11/01 10:15:11;;;;;;;;;;;16.40;99.90;;;;;;4949345;28;19918;-79
2022/11/01 10:17:37;;;;;;;;;;;16.30;99.90;;;;;;4951116;28;19910;-82
2022/11/01 10:20:03;;;;;;;;;;;16.40;99.90;;;;;;4939320;28;19973;-81
2022/11/01 10:22:30;;;;;;;;;;;16.40;99.90;;;;;;4965860;28;19914;-78
2022/11/01 10:24:57;;;;;;;;;;;16.40;99.90;;;;;;4942061;28;19907;-78
2022/11/01 10:27:41;;;;;;;;;;;16.20;99.90;;;;;;4942691;29;20004;-78
2022/11/01 10:30:12;;;;;;;;;;;16.10;99.90;;;;;;4949888;28;20019;-78
2022/11/01 10:33:00;;;;;;;;;;;16.10;99.90;;;;;;4951526;28;19981;-79
2022/11/01 10:35:28;;;;;;;;;;;16.00;99.90;;;;;;4949910;28;19957;-79
2022/11/01 10:37:58;;;;;;;;;;;16.10;99.90;;;;;;4952079;28;20116;-80
2022/11/01 10:40:29;;;;;;;;;;;16.10;99.90;;;;;;4951098;29;19917;-80
2022/11/01 10:42:54;;;;;;;;;;;16.00;99.90;;;;;;4952162;28;19913;-77
2022/11/01 10:45:22;;;;;;;;;;;16.00;99.90;;;;;;4945504;29;19970;-82
2022/11/01 10:47:50;;;;;;;;;;;16.00;99.90;;;;;;4950624;29;19906;-81
2022/11/01 10:50:17;;;;;;;;;;;16.00;99.90;;;;;;4962119;28;19917;-79
2022/11/01 10:52:55;;;;;;;;;;;16.10;99.90;;;;;;4939818;28;19910;-79
2022/11/01 10:55:25;;;;;;;;;;;16.30;99.90;;;;;;4950852;28;19922;-78
2022/11/01 10:57:57;;;;;;;;;;;16.50;99.90;;;;;;4956086;28;19911;-79
2022/11/01 11:00:23;;;;;;;;;;;16.60;99.90;;;;;;4947026;28;20437;-78
2022/11/01 11:02:54;;;;;;;;;;;16.70;99.90;;;;;;4950544;28;19918;-80
2022/11/01 11:05:20;;;;;;;;;;;16.90;99.90;;;;;;4947356;29;19930;-79
2022/11/01 11:07:45;;;;;;;;;;;16.80;99.90;;;;;;4937559;28;20281;-79
2022/11/01 11:10:19;;;;;;;;;;;16.80;99.90;;;;;;4940949;28;19921;-81
2022/11/01 11:12:46;;;;;;;;;;;16.60;99.90;;;;;;4935653;28;19915;-81
2022/11/01 11:15:17;;;;;;;;;;;16.50;99.90;;;;;;4950710;28;19922;-79
2022/11/01 11:17:43;;;;;;;;;;;16.50;99.90;;;;;;4947497;28;19922;-80
2022/11/01 11:20:10;;;;;;;;;;;16.80;99.90;;;;;;4948541;28;19942;-79
2022/11/01 11:22:38;;;;;;;;;;;17.20;99.90;;;;;;4931062;29;19910;-80
2022/11/01 11:25:05;;;;;;;;;;;17.60;99.90;;;;;;4933396;29;19907;-79
2022/11/01 11:27:32;;;;;;;;;;;17.80;99.90;;;;;;4941685;28;19910;-80
2022/11/01 11:30:00;;;;;;;;;;;18.80;99.90;;;;;;4949121;28;19919;-82
2022/11/01 11:32:34;;;;;;;;;;;21.00;99.90;;;;;;4946995;28;20338;-80
2022/11/01 11:35:02;;;;;;;;;;;20.10;99.90;;;;;;4931214;29;19906;-80
2022/11/01 11:37:30;;;;;;;;;;;19.40;99.90;;;;;;4941513;29;19910;-80
2022/11/01 11:39:59;;;;;;;;;;;19.00;99.90;;;;;;4947916;29;19915;-80
2022/11/01 11:42:29;;;;;;;;;;;18.50;99.90;;;;;;4952561;28;19925;-81
2022/11/01 11:45:13;;;;;;;;;;;18.10;99.90;;;;;;4943365;28;19910;-82
2022/11/01 11:47:38;;;;;;;;;;;17.80;99.90;;;;;;4950367;28;19997;-78
2022/11/01 11:50:22;;;;;;;;;;;17.60;99.90;;;;;;4950738;29;20172;-80
2022/11/01 11:52:58;;;;;;;;;;;17.40;99.90;;;;;;4952670;28;20516;-79
2022/11/01 11:55:26;;;;;;;;;;;17.20;99.90;;;;;;4946041;28;19926;-80
2022/11/01 11:57:53;;;;;;;;;;;17.20;99.90;;;;;;4930779;29;19911;-80
2022/11/01 12:00:20;;;;;;;;;;;17.10;99.90;;;;;;4943315;29;20422;-79
2022/11/01 12:02:46;;;;;;;;;;;17.00;99.90;;;;;;4947886;28;19919;-81
2022/11/01 12:05:18;;;;;;;;;;;17.00;99.90;;;;;;4938359;28;19974;-79
2022/11/01 12:07:45;;;;;;;;;;;16.90;99.90;;;;;;4938707;28;19957;-79
2022/11/01 12:10:29;;;;;;;;;;;16.80;99.90;;;;;;4930962;29;20028;-81
2022/11/01 12:12:55;;;;;;;;;;;16.70;99.90;;;;;;4940301;28;19954;-80
2022/11/01 12:15:30;;;;;;;;;;;16.60;99.90;;;;;;4942750;28;19911;-80
2022/11/01 12:17:56;;;;;;;;;;;16.60;99.90;;;;;;4952511;28;20432;-81
2022/11/01 12:20:25;;;;;;;;;;;16.50;99.90;;;;;;4953439;28;19911;-79
2022/11/01 12:22:58;;;;;;;;;;;16.50;99.90;;;;;;4953462;29;20435;-80
2022/11/01 12:25:24;;;;;;;;;;;16.40;99.90;;;;;;4954562;28;20001;-80
2022/11/01 12:27:54;;;;;;;;;;;16.50;99.90;;;;;;4960703;28;20017;-80
2022/11/01 12:30:21;;;;;;;;;;;16.50;99.90;;;;;;4938774;28;19981;-80
2022/11/01 12:32:47;;;;;;;;;;;16.60;99.90;;;;;;4955744;28;20079;-80
2022/11/01 12:35:36;;;;;;;;;;;16.80;99.90;;;;;;4953356;28;20009;-78
2022/11/01 12:38:16;;;;;;;;;;;17.00;99.90;;;;;;4954115;28;19910;-79
2022/11/01 12:40:42;;;;;;;;;;;17.60;99.90;;;;;;4933970;29;19918;-80
2022/11/01 12:43:13;;;;;;;;;;;17.90;99.90;;;;;;4958075;28;19907;-80
2022/11/01 12:45:51;;;;;;;;;;;17.80;99.90;;;;;;4945436;29;19968;-80
2022/11/01 12:48:22;;;;;;;;;;;17.80;99.90;;;;;;4935041;28;20353;-79
2022/11/01 12:50:53;;;;;;;;;;;17.70;99.90;;;;;;4944469;28;19910;-80
2022/11/01 12:53:24;;;;;;;;;;;17.70;99.90;;;;;;4940560;29;19919;-79
2022/11/01 12:55:49;;;;;;;;;;;17.60;99.90;;;;;;4947022;29;19911;-81
2022/11/01 12:58:19;;;;;;;;;;;17.50;99.90;;;;;;4941079;29;20001;-80
2022/11/01 13:01:03;;;;;;;;;;;17.50;99.90;;;;;;4945893;29;19973;-79
2022/11/01 13:03:47;;;;;;;;;;;17.60;99.90;;;;;;4937378;28;19966;-79
2022/11/01 13:06:28;;;;;;;;;;;17.70;99.90;;;;;;4941254;29;19910;-79
2022/11/01 13:09:13;;;;;;;;;;;17.80;99.90;;;;;;4946878;29;19930;-79
2022/11/01 13:11:46;;;;;;;;;;;18.30;99.90;;;;;;4938976;29;20033;-80
2022/11/01 13:14:24;;;;;;;;;;;19.20;99.90;;;;;;4950016;28;19936;-79
2022/11/01 13:16:53;;;;;;;;;;;19.20;99.90;;;;;;4936178;29;20054;-79
2022/11/01 13:19:42;;;;;;;;;;;19.20;99.90;;;;;;4933317;29;19931;-79
2022/11/01 13:22:12;;;;;;;;;;;19.30;99.90;;;;;;4939034;28;19906;-79
2022/11/01 13:24:40;;;;;;;;;;;19.00;99.90;;;;;;4941725;28;19911;-79
2022/11/01 13:27:20;;;;;;;;;;;19.20;99.90;;;;;;4941441;28;19906;-78
2022/11/01 13:29:53;;;;;;;;;;;19.20;99.90;;;;;;4945338;28;20258;-79
2022/11/01 13:32:43;;;;;;;;;;;19.10;99.90;;;;;;4943725;28;19911;-78
2022/11/01 13:35:20;;;;;;;;;;;18.90;99.90;;;;;;4950940;29;20452;-78
2022/11/01 13:37:52;;;;;;;;;;;18.70;99.90;;;;;;4951046;29;19917;-78
2022/11/01 13:40:22;;;;;;;;;;;18.30;99.90;;;;;;4932640;29;19911;-78
2022/11/01 13:43:01;;;;;;;;;;;18.00;99.90;;;;;;4932568;28;19958;-78
2022/11/01 13:45:32;;;;;;;;;;;17.70;99.90;;;;;;4940613;28;19911;-79
2022/11/01 13:48:16;;;;;;;;;;;17.60;99.90;;;;;;4951666;28;19910;-77
2022/11/01 13:50:44;;;;;;;;;;;17.70;99.90;;;;;;4936013;29;19958;-77
2022/11/01 13:53:16;;;;;;;;;;;17.50;99.90;;;;;;4933686;28;19929;-79
2022/11/01 13:55:48;;;;;;;;;;;17.50;99.90;;;;;;4940973;28;19960;-79
2022/11/01 13:58:19;;;;;;;;;;;17.60;99.90;;;;;;4932539;29;20694;-79
2022/11/01 14:00:49;;;;;;;;;;;17.70;99.90;;;;;;4936875;28;20581;-80
2022/11/01 14:03:18;;;;;;;;;;;17.70;99.90;;;;;;4951093;29;19914;-79
2022/11/01 14:05:44;;;;;;;;;;;17.70;99.90;;;;;;4949847;28;19910;-78
2022/11/01 14:08:11;;;;;;;;;;;17.60;99.90;;;;;;4950421;28;19917;-80
2022/11/01 14:10:44;;;;;;;;;;;17.50;99.90;;;;;;4951504;28;19937;-78
2022/11/01 14:13:13;;;;;;;;;;;17.50;99.90;;;;;;4951450;28;19906;-79
2022/11/01 14:15:53;;;;;;;;;;;17.50;99.90;;;;;;4953613;28;19914;-78
2022/11/01 14:18:19;;;;;;;;;;;17.40;99.90;;;;;;4950737;28;19910;-79
2022/11/01 14:20:46;;;;;;;;;;;17.50;99.90;;;;;;4955306;28;19977;-79
2022/11/01 14:23:26;;;;;;;;;;;17.70;99.90;;;;;;4957098;28;19934;-80
2022/11/01 14:26:15;;;;;;;;;;;17.90;99.90;;;;;;4944268;28;19914;-79
2022/11/01 14:28:41;;;;;;;;;;;18.10;99.90;;;;;;4949533;28;20394;-79
2022/11/01 14:31:07;;;;;;;;;;;18.70;99.90;;;;;;4931897;29;19954;-80